createdAt,value
2023-02-20T00:01:19.749Z,4.60
2023-02-20T00:03:48.644Z,6.22
2023-02-20T00:06:16.135Z,5.43
2023-02-20T00:08:43.596Z,5.40
2023-02-20T00:11:11.215Z,5.55
2023-02-20T00:13:38.742Z,5.97
2023-02-20T00:16:06.825Z,6.28
2023-02-20T00:18:34.295Z,3.45
2023-02-20T00:21:03.083Z,5.55
2023-02-20T00:23:33.623Z,5.93
2023-02-20T00:26:01.131Z,5.70
2023-02-20T00:28:29.768Z,7.30
2023-02-20T00:30:57.340Z,8.48
2023-02-20T00:33:25.214Z,5.75
2023-02-20T00:35:52.716Z,5.97
2023-02-20T00:38:21.494Z,6.10
2023-02-20T00:40:48.979Z,6.70
2023-02-20T00:43:16.644Z,6.25
2023-02-20T00:45:44.104Z,6.47
2023-02-20T00:48:11.596Z,5.78
2023-02-20T00:50:39.159Z,5.70
2023-02-20T00:53:06.689Z,5.72
2023-02-20T00:55:35.506Z,6.63
2023-02-20T00:58:02.960Z,6.30
2023-02-20T01:00:31.830Z,6.57
2023-02-20T01:02:59.418Z,5.75
2023-02-20T01:05:26.955Z,6.22
2023-02-20T01:07:55.024Z,5.32
2023-02-20T01:10:22.506Z,5.88
2023-02-20T01:12:52.669Z,6.07
2023-02-20T01:15:20.224Z,6.25
2023-02-20T01:17:47.818Z,6.15
2023-02-20T01:20:15.452Z,27.67
2023-02-20T01:22:43.034Z,10.05
2023-02-20T01:25:10.488Z,7.00
2023-02-20T01:27:37.964Z,5.38
2023-02-20T01:30:08.419Z,9.02
2023-02-20T01:32:35.925Z,6.60
2023-02-20T01:35:03.402Z,7.97
2023-02-20T01:37:30.873Z,9.48
2023-02-20T01:39:58.356Z,6.07
2023-02-20T01:42:30.425Z,6.80
2023-02-20T01:47:52.589Z,7.18
2023-02-20T01:50:21.862Z,7.55
2023-02-20T01:52:52.007Z,5.50
2023-02-20T01:55:22.785Z,7.80
2023-02-20T01:57:53.630Z,6.00
2023-02-20T02:00:24.277Z,5.95
2023-02-20T02:03:00.526Z,5.90
2023-02-20T02:05:29.844Z,7.35
2023-02-20T02:07:57.589Z,6.03
2023-02-20T02:10:29.091Z,4.45
2023-02-20T02:12:56.588Z,5.13
2023-02-20T02:15:25.333Z,3.67
2023-02-20T02:18:31.357Z,7.00
2023-02-20T02:21:35.979Z,5.75
2023-02-20T02:24:23.700Z,5.55
2023-02-20T02:27:37.122Z,5.57
2023-02-20T02:30:44.684Z,4.45
2023-02-20T02:33:28.730Z,6.32
2023-02-20T02:36:13.206Z,6.47
2023-02-20T02:38:46.116Z,6.18
2023-02-20T02:41:19.428Z,3.83
2023-02-20T02:43:51.481Z,6.75
2023-02-20T02:46:23.436Z,6.30
2023-02-20T02:48:54.353Z,5.18
2023-02-20T02:51:26.949Z,5.82
2023-02-20T02:54:08.742Z,6.35
2023-02-20T02:56:37.330Z,4.70
2023-02-20T02:59:05.975Z,5.45
2023-02-20T03:01:34.421Z,5.95
2023-02-20T03:04:03.422Z,6.80
2023-02-20T03:06:35.300Z,6.55
2023-02-20T03:09:04.769Z,4.45
2023-02-20T03:11:33.486Z,5.13
2023-02-20T03:14:23.071Z,3.95
2023-02-20T03:16:54.682Z,5.50
2023-02-20T03:19:27.200Z,6.82
2023-02-20T03:21:57.224Z,6.07
2023-02-20T03:24:25.524Z,4.13
2023-02-20T03:26:53.933Z,6.60
2023-02-20T03:29:27.905Z,5.00
2023-02-20T03:32:15.374Z,5.97
2023-02-20T03:35:01.380Z,6.25
2023-02-20T03:37:49.980Z,4.45
2023-02-20T03:40:36.838Z,5.70
2023-02-20T03:43:25.533Z,5.95
2023-02-20T03:45:54.268Z,3.80
2023-02-20T03:48:27.206Z,5.07
2023-02-20T03:50:54.774Z,5.57
2023-02-20T03:53:23.597Z,5.47
2023-02-20T03:55:53.084Z,7.32
2023-02-20T03:58:23.543Z,8.00
2023-02-20T04:00:52.744Z,7.40
2023-02-20T04:03:22.335Z,9.20
2023-02-20T04:05:52.402Z,7.75
2023-02-20T04:08:23.583Z,10.32
2023-02-20T04:10:54.798Z,7.72
2023-02-20T04:13:22.625Z,6.30
2023-02-20T04:15:50.637Z,11.38
2023-02-20T04:18:19.755Z,7.85
2023-02-20T04:20:47.488Z,10.02
2023-02-20T04:23:17.558Z,9.85
2023-02-20T04:25:48.418Z,10.00
2023-02-20T04:28:16.504Z,12.02
2023-02-20T04:30:44.365Z,10.63
2023-02-20T04:33:12.547Z,12.70
2023-02-20T04:35:40.069Z,12.88
2023-02-20T04:38:07.844Z,11.90
2023-02-20T04:40:35.318Z,13.20
2023-02-20T04:43:04.252Z,12.75
2023-02-20T04:45:31.722Z,12.60
2023-02-20T04:47:59.198Z,12.10
2023-02-20T04:50:28.226Z,10.40
2023-02-20T04:52:55.823Z,6.90
2023-02-20T04:55:23.408Z,13.05
2023-02-20T04:57:51.473Z,22.67
2023-02-20T05:00:22.042Z,17.13
2023-02-20T05:02:49.780Z,21.70
2023-02-20T05:05:20.923Z,15.63
2023-02-20T05:07:48.578Z,13.68
2023-02-20T05:10:16.824Z,9.70
2023-02-20T05:12:44.346Z,11.40
2023-02-20T05:15:11.836Z,11.25
2023-02-20T05:17:40.659Z,10.75
2023-02-20T05:20:09.362Z,7.38
2023-02-20T05:22:35.901Z,10.27
2023-02-20T05:25:03.778Z,10.73
2023-02-20T05:27:31.418Z,10.30
2023-02-20T05:30:00.704Z,9.10
2023-02-20T05:32:29.753Z,8.95
2023-02-20T05:34:59.087Z,9.15
2023-02-20T05:37:28.249Z,8.15
2023-02-20T05:39:55.976Z,9.20
2023-02-20T05:42:23.732Z,8.88
2023-02-20T05:44:51.222Z,8.93
2023-02-20T05:47:18.813Z,4.95
2023-02-20T05:49:47.746Z,7.75
2023-02-20T05:52:16.550Z,7.03
2023-02-20T05:54:44.039Z,9.27
2023-02-20T05:57:13.182Z,7.43
2023-02-20T05:59:40.751Z,9.20
2023-02-20T06:02:08.260Z,7.22
2023-02-20T06:04:35.849Z,8.40
2023-02-20T06:07:03.371Z,7.60
2023-02-20T06:09:33.947Z,8.20
2023-02-20T06:12:01.450Z,7.45
2023-02-20T06:14:28.965Z,5.75
2023-02-20T06:16:58.036Z,6.72
2023-02-20T06:19:26.199Z,5.55
2023-02-20T06:21:54.835Z,9.35
2023-02-20T06:24:23.064Z,6.35
2023-02-20T06:26:52.166Z,6.07
2023-02-20T06:29:19.969Z,7.15
2023-02-20T06:31:47.860Z,5.78
2023-02-20T06:34:16.074Z,8.10
2023-02-20T06:36:43.634Z,7.63
2023-02-20T06:39:13.684Z,7.55
2023-02-20T06:41:41.153Z,8.10
2023-02-20T06:44:09.961Z,5.65
2023-02-20T06:46:37.483Z,5.78
2023-02-20T06:49:05.244Z,6.40
2023-02-20T06:51:34.609Z,5.68
2023-02-20T06:54:03.047Z,8.60
2023-02-20T06:56:32.662Z,7.20
2023-02-20T06:59:01.181Z,4.50
2023-02-20T07:01:31.680Z,4.80
2023-02-20T07:04:00.477Z,5.15
2023-02-20T07:06:28.699Z,7.20
2023-02-20T07:08:56.180Z,6.13
2023-02-20T07:11:24.157Z,5.75
2023-02-20T07:13:52.103Z,4.70
2023-02-20T07:16:19.625Z,7.95
2023-02-20T07:18:48.469Z,6.55
2023-02-20T07:21:16.071Z,5.43
2023-02-20T07:23:45.059Z,5.50
2023-02-20T07:26:19.021Z,4.25
2023-02-20T07:28:46.520Z,4.65
2023-02-20T07:31:14.007Z,5.30
2023-02-20T07:33:42.954Z,5.53
2023-02-20T07:36:12.601Z,5.97
2023-02-20T07:38:40.394Z,5.03
2023-02-20T07:41:08.384Z,7.38
2023-02-20T07:43:36.371Z,4.68
2023-02-20T07:46:03.941Z,6.50
2023-02-20T07:48:31.451Z,3.75
2023-02-20T07:50:58.948Z,6.57
2023-02-20T07:53:28.149Z,6.28
2023-02-20T07:55:55.611Z,4.38
2023-02-20T07:58:23.118Z,6.47
2023-02-20T08:00:51.534Z,4.28
2023-02-20T08:03:19.012Z,5.68
2023-02-20T08:05:49.611Z,5.75
2023-02-20T08:08:17.708Z,5.15
2023-02-20T08:10:47.078Z,6.28
2023-02-20T08:13:15.418Z,5.50
2023-02-20T08:15:44.706Z,5.55
2023-02-20T08:18:22.242Z,4.70
2023-02-20T08:20:52.096Z,5.07
2023-02-20T08:23:20.736Z,7.20
2023-02-20T08:25:49.534Z,5.30
2023-02-20T08:28:17.314Z,4.93
2023-02-20T08:30:44.804Z,5.28
2023-02-20T08:33:12.275Z,5.22
2023-02-20T08:35:39.863Z,4.68
2023-02-20T08:38:08.864Z,5.32
2023-02-20T08:40:36.357Z,5.32
2023-02-20T08:43:05.145Z,3.95
2023-02-20T08:45:32.685Z,4.43
2023-02-20T08:48:02.066Z,4.93
2023-02-20T08:50:29.584Z,5.63
2023-02-20T08:52:57.052Z,3.70
2023-02-20T08:55:24.540Z,5.13
2023-02-20T08:57:52.000Z,5.05
2023-02-20T09:00:21.392Z,3.83
2023-02-20T09:02:49.097Z,5.18
2023-02-20T09:05:17.091Z,5.03
2023-02-20T09:07:45.251Z,4.60
2023-02-20T09:10:13.161Z,5.15
2023-02-20T09:12:42.068Z,4.28
2023-02-20T09:15:10.370Z,3.53
2023-02-20T09:17:39.292Z,3.40
2023-02-20T09:20:09.786Z,3.72
2023-02-20T09:22:37.700Z,5.57
2023-02-20T09:25:06.808Z,3.38
2023-02-20T09:27:34.356Z,5.93
2023-02-20T09:30:05.089Z,6.22
2023-02-20T09:32:32.657Z,4.30
2023-02-20T09:35:01.507Z,4.55
2023-02-20T09:37:28.982Z,3.80
2023-02-20T09:39:56.515Z,5.57
2023-02-20T09:42:30.636Z,5.00
2023-02-20T09:45:04.547Z,4.00
2023-02-20T09:47:40.635Z,4.50
2023-02-20T09:50:14.781Z,3.92
2023-02-20T09:52:46.967Z,6.25
2023-02-20T09:55:19.660Z,4.95
2023-02-20T09:57:50.562Z,4.13
2023-02-20T10:00:23.246Z,5.07
2023-02-20T10:02:55.590Z,4.43
2023-02-20T10:05:27.629Z,4.32
2023-02-20T10:07:55.136Z,5.50
2023-02-20T10:10:25.577Z,6.20
2023-02-20T10:13:04.728Z,5.25
2023-02-20T10:15:38.879Z,5.65
2023-02-20T10:18:16.632Z,4.72
2023-02-20T10:20:49.982Z,5.43
2023-02-20T10:23:22.107Z,5.15
2023-02-20T10:25:52.917Z,5.03
2023-02-20T10:28:23.357Z,4.70
2023-02-20T10:30:58.218Z,4.47
2023-02-20T10:33:30.427Z,4.68
2023-02-20T10:36:01.932Z,5.20
2023-02-20T10:38:39.012Z,5.05
2023-02-20T10:41:11.530Z,4.53
2023-02-20T10:43:42.930Z,3.42
2023-02-20T10:46:14.361Z,5.03
2023-02-20T10:48:45.209Z,4.83
2023-02-20T10:51:18.116Z,5.20
2023-02-20T10:56:16.548Z,5.22
2023-02-20T10:58:47.382Z,5.25
2023-02-20T11:01:17.110Z,5.57
2023-02-20T11:03:48.558Z,3.88
2023-02-20T11:06:20.211Z,5.72
2023-02-20T11:08:47.958Z,4.75
2023-02-20T11:11:26.212Z,4.72
2023-02-20T11:13:53.726Z,5.07
2023-02-20T11:16:25.596Z,4.60
2023-02-20T11:19:03.675Z,5.10
2023-02-20T11:21:39.460Z,5.10
2023-02-20T11:24:30.760Z,6.05
2023-02-20T11:27:03.212Z,6.35
2023-02-20T11:29:36.132Z,6.85
2023-02-20T11:35:20.326Z,6.18
2023-02-20T11:37:55.241Z,5.47
2023-02-20T11:40:27.718Z,6.75
2023-02-20T11:42:55.400Z,5.43
2023-02-20T11:45:24.938Z,6.70
2023-02-20T11:48:08.759Z,6.53
2023-02-20T11:50:40.741Z,8.10
2023-02-20T11:53:19.712Z,6.10
2023-02-20T11:55:59.529Z,5.47
2023-02-20T11:58:29.211Z,8.35
2023-02-20T12:00:57.728Z,9.88
2023-02-20T12:03:28.268Z,5.75
2023-02-20T12:05:56.542Z,7.78
2023-02-20T12:08:44.870Z,7.75
2023-02-20T12:11:14.542Z,6.65
2023-02-20T12:13:44.216Z,7.75
2023-02-20T12:16:31.099Z,8.38
2023-02-20T12:19:05.202Z,10.10
2023-02-20T12:21:41.267Z,8.20
2023-02-20T12:24:30.085Z,7.88
2023-02-20T12:26:59.427Z,6.03
2023-02-20T12:29:38.333Z,10.00
2023-02-20T12:32:21.710Z,8.65
2023-02-20T12:34:58.263Z,7.65
2023-02-20T12:37:31.538Z,9.48
2023-02-20T12:40:06.518Z,10.73
2023-02-20T12:42:38.955Z,14.43
2023-02-20T12:45:17.528Z,8.65
2023-02-20T12:47:46.500Z,12.13
2023-02-20T12:50:30.760Z,10.65
2023-02-20T12:53:13.714Z,10.85
2023-02-20T12:55:50.413Z,13.43
2023-02-20T12:58:26.191Z,11.43
2023-02-20T13:00:56.224Z,14.05
2023-02-20T13:03:25.552Z,12.57
2023-02-20T13:05:53.905Z,13.05
2023-02-20T13:08:26.349Z,10.68
2023-02-20T13:10:58.125Z,11.73
2023-02-20T13:13:27.489Z,12.43
2023-02-20T13:16:00.161Z,10.73
2023-02-20T13:18:34.934Z,12.35
2023-02-20T13:21:05.164Z,13.20
2023-02-20T13:23:34.894Z,9.38
2023-02-20T13:26:04.693Z,9.48
2023-02-20T13:28:42.943Z,7.80
2023-02-20T13:31:14.144Z,10.02
2023-02-20T13:33:43.430Z,10.75
2023-02-20T13:36:41.389Z,10.55
2023-02-20T13:39:45.414Z,10.18
2023-02-20T13:42:38.800Z,6.93
2023-02-20T13:48:37.363Z,7.22
2023-02-20T13:53:54.741Z,5.80
2023-02-20T13:56:24.318Z,24.52
2023-02-20T13:58:55.912Z,15.80
2023-02-20T14:01:23.419Z,8.30
2023-02-20T14:04:01.126Z,10.77
2023-02-20T14:06:29.474Z,9.60
2023-02-20T14:09:09.723Z,8.32
2023-02-20T14:11:38.195Z,10.75
2023-02-20T14:14:10.408Z,9.10
2023-02-20T14:16:39.821Z,11.15
2023-02-20T14:19:13.941Z,9.73
2023-02-20T14:21:41.501Z,10.27
2023-02-20T14:24:18.633Z,10.40
2023-02-20T14:26:46.517Z,10.88
2023-02-20T14:29:23.504Z,11.98
2023-02-20T14:31:52.422Z,10.93
2023-02-20T14:34:24.298Z,9.10
2023-02-20T14:37:01.205Z,12.23
2023-02-20T14:39:38.937Z,8.98
2023-02-20T14:42:07.173Z,10.38
2023-02-20T14:44:38.689Z,7.45
2023-02-20T14:47:08.782Z,8.82
2023-02-20T14:49:36.404Z,12.80
2023-02-20T14:52:15.396Z,9.00
2023-02-20T14:54:44.591Z,11.07
2023-02-20T14:57:14.426Z,12.98
2023-02-20T14:59:43.911Z,10.80
2023-02-20T15:02:32.647Z,9.02
2023-02-20T15:05:04.737Z,10.50
2023-02-20T15:07:32.718Z,9.63
2023-02-20T15:10:02.945Z,10.32
2023-02-20T15:12:33.627Z,9.60
2023-02-20T15:15:04.257Z,7.35
2023-02-20T15:17:32.873Z,7.97
2023-02-20T15:20:01.393Z,10.18
2023-02-20T15:22:33.255Z,7.68
2023-02-20T15:25:16.146Z,13.57
2023-02-20T15:28:05.375Z,9.57
2023-02-20T15:30:34.420Z,10.00
2023-02-20T15:33:01.975Z,12.95
2023-02-20T15:35:32.254Z,13.82
2023-02-20T15:38:02.907Z,8.65
2023-02-20T15:40:32.833Z,10.60
2023-02-20T15:43:18.718Z,7.70
2023-02-20T15:45:49.370Z,6.80
2023-02-20T15:48:17.086Z,12.05
2023-02-20T15:50:44.911Z,9.85
2023-02-20T15:53:16.075Z,15.07
2023-02-20T15:55:43.941Z,13.27
2023-02-20T15:58:25.247Z,9.32
2023-02-20T16:00:56.166Z,11.48
2023-02-20T16:03:24.253Z,7.93
2023-02-20T16:05:52.167Z,7.38
2023-02-20T16:08:20.283Z,8.15
2023-02-20T16:10:47.819Z,13.95
2023-02-20T16:13:24.145Z,11.25
2023-02-20T16:15:51.634Z,7.85
2023-02-20T16:18:21.378Z,8.05
2023-02-20T16:20:50.614Z,11.13
2023-02-20T16:23:18.633Z,11.80
2023-02-20T16:25:46.203Z,12.73
2023-02-20T16:28:14.312Z,8.93
2023-02-20T16:30:45.318Z,11.07
2023-02-20T16:33:15.071Z,7.38
2023-02-20T16:35:44.454Z,13.07
2023-02-20T16:38:11.941Z,7.78
2023-02-20T16:40:39.791Z,7.88
2023-02-20T16:43:07.378Z,6.85
2023-02-20T16:45:36.709Z,7.07
2023-02-20T16:48:05.004Z,7.82
2023-02-20T16:50:34.161Z,8.32
2023-02-20T16:53:05.462Z,9.95
2023-02-20T16:55:35.959Z,10.63
2023-02-20T16:58:03.517Z,10.15
2023-02-20T17:00:33.989Z,11.50
2023-02-20T17:03:01.897Z,16.40
2023-02-20T17:05:31.420Z,11.18
2023-02-20T17:07:59.919Z,11.35
2023-02-20T17:10:29.537Z,13.05
2023-02-20T17:12:57.509Z,11.95
2023-02-20T17:15:26.167Z,6.43
2023-02-20T17:17:54.301Z,12.27
2023-02-20T17:20:23.581Z,13.70
2023-02-20T17:23:02.794Z,11.77
2023-02-20T17:25:34.685Z,15.55
2023-02-20T17:28:02.430Z,14.35
2023-02-20T17:30:29.944Z,8.13
2023-02-20T17:32:57.481Z,14.05
2023-02-20T17:35:24.956Z,8.23
2023-02-20T17:37:52.433Z,14.90
2023-02-20T17:40:20.388Z,13.82
2023-02-20T17:42:49.222Z,16.42
2023-02-20T17:45:17.108Z,9.40
2023-02-20T17:47:45.003Z,8.75
2023-02-20T17:50:12.610Z,8.57
2023-02-20T17:52:40.136Z,7.75
2023-02-20T17:55:08.102Z,8.40
2023-02-20T17:57:36.082Z,7.57
2023-02-20T18:00:06.734Z,8.13
2023-02-20T18:02:34.254Z,10.23
2023-02-20T18:05:01.786Z,7.53
2023-02-20T18:07:29.305Z,8.63
2023-02-20T18:09:57.177Z,10.20
2023-02-20T18:12:25.113Z,8.05
2023-02-20T18:14:53.122Z,9.35
2023-02-20T18:17:22.090Z,9.38
2023-02-20T18:19:49.751Z,8.32
2023-02-20T18:22:17.376Z,6.72
2023-02-20T18:24:44.852Z,9.35
2023-02-20T18:27:12.616Z,9.02
2023-02-20T18:29:40.249Z,8.98
2023-02-20T18:32:09.080Z,7.85
2023-02-20T18:34:37.922Z,7.35
2023-02-20T18:37:05.414Z,6.85
2023-02-20T18:39:32.935Z,7.10
2023-02-20T18:42:00.703Z,5.63
2023-02-20T18:44:28.176Z,7.90
2023-02-20T18:46:57.372Z,6.88
2023-02-20T18:49:24.855Z,6.53
2023-02-20T18:51:53.889Z,7.43
2023-02-20T18:54:24.494Z,6.13
2023-02-20T18:56:52.953Z,6.05
2023-02-20T18:59:20.733Z,8.85
2023-02-20T19:01:48.629Z,6.38
2023-02-20T19:04:16.732Z,7.60
2023-02-20T19:06:44.954Z,7.78
2023-02-20T19:09:16.109Z,5.57
2023-02-20T19:11:44.003Z,5.18
2023-02-20T19:14:11.652Z,7.35
2023-02-20T19:16:39.427Z,6.00
2023-02-20T19:19:07.883Z,6.35
2023-02-20T19:21:35.580Z,6.35
2023-02-20T19:24:04.052Z,9.13
2023-02-20T19:26:33.169Z,6.05
2023-02-20T19:31:33.596Z,8.65
2023-02-20T19:34:01.485Z,6.50
2023-02-20T19:36:28.971Z,6.35
2023-02-20T19:38:56.677Z,7.63
2023-02-20T19:41:24.282Z,6.70
2023-02-20T19:43:55.107Z,4.43
2023-02-20T19:46:25.023Z,6.28
2023-02-20T19:48:52.580Z,5.47
2023-02-20T19:51:21.221Z,7.90
2023-02-20T19:53:49.587Z,6.50
2023-02-20T19:56:17.063Z,7.40
2023-02-20T19:58:44.826Z,9.73
2023-02-20T20:01:15.683Z,7.00
2023-02-20T20:03:44.000Z,6.70
2023-02-20T20:06:13.281Z,6.22
2023-02-20T20:09:01.835Z,5.30
2023-02-20T20:11:28.449Z,8.23
2023-02-20T20:13:55.971Z,4.50
2023-02-20T20:16:24.877Z,6.90
2023-02-20T20:18:53.422Z,6.43
2023-02-20T20:21:21.222Z,6.70
2023-02-20T20:23:48.714Z,7.70
2023-02-20T20:26:16.325Z,7.60
2023-02-20T20:28:43.949Z,8.32
2023-02-20T20:31:11.670Z,8.27
2023-02-20T20:33:40.797Z,7.70
2023-02-20T20:36:08.852Z,6.38
2023-02-20T20:38:36.389Z,4.15
2023-02-20T20:41:04.170Z,5.95
2023-02-20T20:43:31.685Z,5.85
2023-02-20T20:45:59.211Z,5.32
2023-02-20T20:48:26.696Z,5.63
2023-02-20T20:50:55.547Z,7.05
2023-02-20T20:53:23.200Z,8.40
2023-02-20T20:55:50.677Z,9.05
2023-02-20T20:58:18.188Z,8.77
2023-02-20T21:00:45.711Z,6.28
2023-02-20T21:03:15.966Z,6.53
2023-02-20T21:05:43.648Z,8.55
2023-02-20T21:08:12.455Z,8.45
2023-02-20T21:10:39.967Z,8.55
2023-02-20T21:13:07.482Z,9.60
2023-02-20T21:15:35.514Z,7.47
2023-02-20T21:18:03.865Z,6.25
2023-02-20T21:20:31.504Z,5.88
2023-02-20T21:23:00.140Z,7.43
2023-02-20T21:25:29.801Z,8.10
2023-02-20T21:27:58.345Z,7.05
2023-02-20T21:30:27.267Z,9.05
2023-02-20T21:32:54.946Z,8.05
2023-02-20T21:35:23.768Z,7.63
2023-02-20T21:37:51.238Z,6.25
2023-02-20T21:40:19.499Z,6.78
2023-02-20T21:43:02.308Z,7.78
2023-02-20T21:45:29.798Z,6.70
2023-02-20T21:47:57.269Z,10.60
2023-02-20T21:50:24.773Z,10.98
2023-02-20T21:52:52.257Z,7.18
2023-02-20T21:55:20.213Z,6.15
2023-02-20T21:57:49.027Z,9.90
2023-02-20T22:00:15.876Z,9.82
2023-02-20T22:02:42.454Z,11.68
2023-02-20T22:05:09.529Z,10.85
2023-02-20T22:07:54.904Z,9.50
2023-02-20T22:10:40.811Z,12.82
2023-02-20T22:13:27.401Z,11.13
2023-02-20T22:16:12.933Z,12.90
2023-02-20T22:18:58.014Z,13.05
2023-02-20T22:21:43.797Z,13.73
2023-02-20T22:24:37.926Z,6.18
2023-02-20T22:27:24.331Z,10.88
2023-02-20T22:30:11.979Z,12.63
2023-02-20T22:32:57.114Z,10.07
2023-02-20T22:35:42.274Z,12.57
2023-02-20T22:38:27.568Z,12.75
2023-02-20T22:41:13.323Z,9.77
2023-02-20T22:44:00.023Z,13.80
2023-02-20T22:46:46.674Z,9.55
2023-02-20T22:49:31.846Z,11.75
2023-02-20T22:52:17.355Z,13.65
2023-02-20T22:55:05.245Z,14.02
2023-02-20T22:57:51.590Z,10.95
2023-02-20T23:00:36.920Z,15.75
2023-02-20T23:03:23.510Z,13.50
2023-02-20T23:06:17.546Z,16.42
2023-02-20T23:09:04.190Z,13.38
2023-02-20T23:11:51.567Z,14.35
2023-02-20T23:14:36.736Z,13.55
2023-02-20T23:17:34.337Z,10.57
2023-02-20T23:20:23.825Z,11.32
2023-02-20T23:23:09.202Z,12.90
2023-02-20T23:25:54.654Z,9.15
2023-02-20T23:28:39.894Z,10.05
2023-02-20T23:31:25.455Z,12.57
2023-02-20T23:34:10.731Z,14.43
2023-02-20T23:36:57.910Z,11.45
2023-02-20T23:39:43.311Z,14.95
2023-02-20T23:42:28.169Z,11.25
2023-02-20T23:45:13.476Z,17.38
2023-02-20T23:47:59.216Z,15.65
2023-02-20T23:50:44.733Z,15.52
2023-02-20T23:53:31.637Z,12.27
2023-02-20T23:56:16.917Z,13.65
2023-02-20T23:59:02.292Z,17.63
